Time;durP1;ratioP1;P1;durP2;ratioP2;P2;SDS_P1;SDS_P2;PMS_P1;PMS_P2;Temp;Humidity;BMP_temperature;BMP_pressure;BME280_temperature;BME280_humidity;BME280_pressure;Samples;Min_cycle;Max_cycle;Signal;HPM_P1;HPM_P2
2024/01/28 00:02:58;;;;;;;0.90;0.70;;;;;;;17.08;51.71;98113.25;10365234;28;20038;-36
2024/01/28 00:07:58;;;;;;;0.85;0.80;;;;;;;17.06;52.06;98108.13;10371776;28;20037;-37
2024/01/28 00:12:59;;;;;;;1.30;0.80;;;;;;;17.05;52.45;98103.03;10370568;28;20645;-37
2024/01/28 00:17:59;;;;;;;0.83;0.63;;;;;;;17.02;52.33;98098.75;10370138;28;20102;-33
2024/01/28 00:23:01;;;;;;;0.73;0.60;;;;;;;17.03;52.35;98097.06;10370179;28;20034;-39
2024/01/28 00:28:02;;;;;;;0.73;0.50;;;;;;;17.01;52.53;98086.06;10370182;28;20296;-33
2024/01/28 00:33:02;;;;;;;0.50;0.50;;;;;;;17.03;52.71;98074.28;10368928;28;20581;-37
2024/01/28 00:38:05;;;;;;;0.80;0.60;;;;;;;17.02;52.44;98065.00;10384814;28;20285;-34
2024/01/28 00:43:05;;;;;;;0.70;0.60;;;;;;;17.02;51.91;98047.28;10368856;28;20033;-38
2024/01/28 00:48:06;;;;;;;1.37;0.70;;;;;;;17.02;52.42;98035.50;10369801;28;20030;-39
2024/01/28 00:53:06;;;;;;;1.63;0.90;;;;;;;17.02;52.25;98032.09;10369748;28;20026;-36
2024/01/28 00:58:08;;;;;;;0.87;0.63;;;;;;;16.99;52.86;98020.22;10369025;28;20099;-34
2024/01/28 01:03:09;;;;;;;1.08;0.80;;;;;;;17.01;52.40;98013.56;10368868;28;20026;-38
2024/01/28 01:08:09;;;;;;;0.90;0.70;;;;;;;17.00;52.65;98018.56;10369366;28;20045;-37
2024/01/28 01:13:09;;;;;;;0.50;0.50;;;;;;;17.02;52.63;98017.78;10367011;28;20712;-37
2024/01/28 01:18:10;;;;;;;0.60;0.50;;;;;;;17.01;52.18;98021.16;10367876;28;20030;-38
2024/01/28 01:23:10;;;;;;;1.00;0.60;;;;;;;17.02;52.64;98032.09;10368526;28;20037;-36
2024/01/28 01:28:11;;;;;;;0.63;0.60;;;;;;;16.99;52.30;98044.69;10367541;28;20030;-36
2024/01/28 01:33:11;;;;;;;0.50;0.50;;;;;;;16.99;52.34;98058.19;10367304;28;20414;-35
2024/01/28 01:38:11;;;;;;;0.57;0.40;;;;;;;16.96;52.72;98055.56;10368405;28;20283;-35
2024/01/28 01:43:12;;;;;;;1.07;0.50;;;;;;;16.97;52.22;98056.41;10366871;28;20295;-38
2024/01/28 01:48:13;;;;;;;0.52;0.40;;;;;;;16.97;52.05;98058.94;10367221;28;20549;-33
2024/01/28 01:53:13;;;;;;;0.80;0.80;;;;;;;16.99;52.49;98068.28;10367177;28;20036;-38
2024/01/28 01:58:14;;;;;;;0.60;0.60;;;;;;;16.99;51.98;98052.28;10366736;28;20046;-36
2024/01/28 02:03:15;;;;;;;1.20;1.10;;;;;;;16.96;52.31;98047.13;10365746;28;20605;-37
2024/01/28 02:08:15;;;;;;;0.75;0.55;;;;;;;16.93;52.48;98036.94;10367044;28;20482;-34
2024/01/28 02:13:16;;;;;;;1.50;0.63;;;;;;;16.96;52.41;98037.88;10365698;28;20629;-37
2024/01/28 02:18:16;;;;;;;0.70;0.70;;;;;;;16.99;52.13;98039.63;10365688;28;20037;-36
2024/01/28 02:23:23;;;;;;;0.87;0.70;;;;;;;16.97;52.08;98038.69;10366171;28;20045;-37
2024/01/28 02:28:23;;;;;;;0.77;0.60;;;;;;;16.94;52.22;98029.38;10364848;28;20416;-35
2024/01/28 02:33:24;;;;;;;1.00;0.60;;;;;;;16.99;52.25;98025.28;10365162;28;20041;-36
2024/01/28 02:38:24;;;;;;;0.40;0.40;;;;;;;16.97;51.92;98023.53;10365864;28;20103;-34
2024/01/28 02:43:24;;;;;;;1.07;0.70;;;;;;;16.97;52.10;98016.81;10364724;28;20704;-35
2024/01/28 02:48:25;;;;;;;0.90;0.80;;;;;;;16.94;51.91;98019.25;10364819;28;20056;-37
2024/01/28 02:53:25;;;;;;;0.70;0.50;;;;;;;16.97;52.00;98013.41;10361761;28;20093;-35
2024/01/28 02:58:26;;;;;;;0.60;0.50;;;;;;;16.94;52.21;98004.09;10365397;28;20401;-36
2024/01/28 03:03:27;;;;;;;0.93;0.60;;;;;;;16.96;51.97;98010.03;10363992;28;20595;-37
2024/01/28 03:08:27;;;;;;;0.55;0.47;;;;;;;16.96;51.79;98011.69;10363380;28;20052;-34
2024/01/28 03:13:28;;;;;;;0.57;0.50;;;;;;;16.94;52.01;98003.22;10364112;28;20030;-36
2024/01/28 03:18:28;;;;;;;1.83;0.60;;;;;;;16.93;52.28;98001.50;10363881;28;20046;-39
2024/01/28 03:23:29;;;;;;;0.53;0.50;;;;;;;16.94;52.36;98013.34;10362965;28;20099;-39
2024/01/28 03:28:29;;;;;;;0.70;0.70;;;;;;;16.90;52.06;98001.44;10363497;28;20506;-39
2024/01/28 03:33:30;;;;;;;0.63;0.50;;;;;;;16.93;51.96;98006.56;10362722;28;20401;-36
2024/01/28 03:38:31;;;;;;;0.50;0.50;;;;;;;16.95;52.26;98012.50;10361021;28;20593;-36
2024/01/28 03:43:32;;;;;;;0.65;0.60;;;;;;;16.96;52.13;98011.69;10362650;28;20036;-39
2024/01/28 03:48:32;;;;;;;0.77;0.63;;;;;;;16.93;52.18;98014.16;10363262;28;20498;-35
2024/01/28 03:53:33;;;;;;;0.83;0.67;;;;;;;16.93;51.69;98004.03;10362449;28;20041;-36
2024/01/28 03:58:33;;;;;;;0.52;0.40;;;;;;;16.93;51.56;98009.09;10363442;28;20037;-37
2024/01/28 04:03:33;;;;;;;0.50;0.50;;;;;;;16.90;52.01;98006.50;10363318;28;20562;-35
2024/01/28 04:08:34;;;;;;;1.03;0.70;;;;;;;16.92;51.94;98005.69;10362191;28;20490;-37
2024/01/28 04:13:34;;;;;;;0.60;0.50;;;;;;;16.92;51.81;97999.78;10362880;28;20040;-35
2024/01/28 04:18:35;;;;;;;0.90;0.80;;;;;;;16.91;52.08;98006.50;10361836;28;20122;-36
2024/01/28 04:23:35;;;;;;;1.23;0.53;;;;;;;16.91;52.12;97993.03;10359267;28;20045;-34
2024/01/28 04:28:35;;;;;;;0.60;0.50;;;;;;;16.93;51.60;97991.38;10362461;28;20659;-35
2024/01/28 04:33:36;;;;;;;0.70;0.50;;;;;;;16.92;51.96;97989.69;10361979;28;20038;-33
2024/01/28 04:38:36;;;;;;;0.75;0.40;;;;;;;16.93;51.67;97986.31;10361507;28;20129;-36
2024/01/28 04:43:38;;;;;;;0.53;0.53;;;;;;;16.90;52.04;97987.09;10362421;28;20547;-37
2024/01/28 04:48:38;;;;;;;0.93;0.60;;;;;;;16.93;52.04;97983.81;10360820;28;20076;-39
2024/01/28 04:53:39;;;;;;;0.60;0.60;;;;;;;16.90;51.72;97976.16;10366407;28;20038;-40
2024/01/28 04:58:39;;;;;;;0.80;0.60;;;;;;;16.93;51.42;97976.22;10369592;28;20037;-37
2024/01/28 05:03:39;;;;;;;0.60;0.50;;;;;;;16.96;51.36;97968.69;10368394;28;20044;-39
2024/01/28 05:08:40;;;;;;;0.70;0.57;;;;;;;16.98;51.32;97974.66;10367822;28;20481;-38
2024/01/28 05:13:41;;;;;;;0.60;0.50;;;;;;;17.02;50.96;97973.91;10368566;28;20060;-40
2024/01/28 05:18:43;;;;;;;0.70;0.50;;;;;;;17.02;50.81;97982.38;10367475;28;20042;-35
2024/01/28 05:23:44;;;;;;;0.57;0.57;;;;;;;17.03;50.99;97979.03;10367150;28;20025;-35
2024/01/28 05:28:47;;;;;;;0.30;0.30;;;;;;;17.03;51.12;97973.09;10368600;28;20453;-37
2024/01/28 05:33:47;;;;;;;0.52;0.52;;;;;;;17.06;50.64;97968.13;10366682;28;20482;-37
2024/01/28 05:38:48;;;;;;;0.88;0.50;;;;;;;17.02;51.08;97971.38;10367099;28;20037;-39
2024/01/28 05:43:48;;;;;;;0.93;0.60;;;;;;;17.01;51.18;97964.63;10367719;28;20113;-35
2024/01/28 05:48:49;;;;;;;0.47;0.47;;;;;;;17.01;50.78;97969.69;10367120;28;20041;-37
2024/01/28 05:53:49;;;;;;;0.60;0.40;;;;;;;17.04;50.72;97967.22;10365301;28;20451;-37
2024/01/28 05:58:49;;;;;;;0.37;0.37;;;;;;;16.99;50.87;97956.13;10367052;28;20076;-34
2024/01/28 06:03:50;;;;;;;0.73;0.60;;;;;;;17.03;50.73;97956.25;10365419;28;20514;-36
2024/01/28 06:08:50;;;;;;;0.33;0.33;;;;;;;16.95;50.97;97954.34;10365339;28;20052;-35
2024/01/28 06:13:50;;;;;;;0.50;0.43;;;;;;;16.94;51.07;97950.97;10366514;28;20041;-35
2024/01/28 06:18:51;;;;;;;0.60;0.60;;;;;;;16.94;51.36;97963.63;10365864;28;20048;-36
2024/01/28 06:23:51;;;;;;;0.57;0.50;;;;;;;16.89;51.42;97959.25;10364731;28;20097;-35
2024/01/28 06:28:51;;;;;;;0.50;0.40;;;;;;;16.90;51.35;97960.97;10366311;28;20687;-34
2024/01/28 06:33:52;;;;;;;0.63;0.53;;;;;;;16.91;51.26;97962.69;10364839;28;20049;-40
2024/01/28 06:38:54;;;;;;;0.50;0.47;;;;;;;16.91;51.43;97962.69;10364712;28;20037;-37
2024/01/28 06:43:54;;;;;;;0.73;0.50;;;;;;;16.89;51.41;97955.03;10365476;28;20034;-37
2024/01/28 06:48:55;;;;;;;0.40;0.30;;;;;;;16.88;51.53;97953.31;10364314;28;20042;-38
2024/01/28 06:53:57;;;;;;;0.60;0.40;;;;;;;16.89;51.71;97949.13;10363751;28;20482;-37
2024/01/28 06:58:57;;;;;;;0.50;0.40;;;;;;;16.86;51.89;97954.97;10364953;28;20095;-38
2024/01/28 07:03:58;;;;;;;0.40;0.40;;;;;;;16.86;51.25;97952.44;10363449;28;20680;-37
2024/01/28 07:08:58;;;;;;;0.50;0.50;;;;;;;16.88;50.78;97948.25;10364378;28;20053;-36
2024/01/28 07:13:58;;;;;;;0.57;0.50;;;;;;;16.95;50.61;97944.22;10364592;28;20050;-35
2024/01/28 07:18:59;;;;;;;0.50;0.50;;;;;;;16.99;50.48;97956.13;10364430;28;20052;-36
2024/01/28 07:23:59;;;;;;;0.63;0.50;;;;;;;17.07;50.09;97958.03;10363272;28;20557;-36
2024/01/28 07:29:00;;;;;;;0.60;0.40;;;;;;;17.10;49.80;97954.72;10364509;28;20041;-39
2024/01/28 07:34:01;;;;;;;0.40;0.38;;;;;;;17.13;49.38;97962.38;10363266;28;20661;-36
2024/01/28 07:39:04;;;;;;;0.47;0.40;;;;;;;17.13;50.12;97959.84;10363220;28;20121;-38
2024/01/28 07:44:04;;;;;;;0.40;0.40;;;;;;;17.08;50.56;97977.44;10363915;28;20026;-38
2024/01/28 07:49:05;;;;;;;0.50;0.50;;;;;;;17.01;50.85;97969.69;10363054;28;20049;-36
2024/01/28 07:54:05;;;;;;;0.93;0.60;;;;;;;16.95;50.81;97967.84;10363076;28;20323;-35
2024/01/28 07:59:06;;;;;;;0.40;0.40;;;;;;;16.92;50.92;97970.28;10363796;28;20040;-33
2024/01/28 08:04:06;;;;;;;0.98;0.52;;;;;;;16.89;51.21;97975.28;10362443;28;20029;-37
2024/01/28 08:09:06;;;;;;;0.80;0.40;;;;;;;16.87;51.19;97976.91;10362456;28;20516;-37
2024/01/28 08:14:07;;;;;;;0.30;0.30;;;;;;;16.88;51.12;97978.63;10363189;28;20042;-35
2024/01/28 08:19:08;;;;;;;0.43;0.43;;;;;;;16.85;51.10;97982.75;10362790;28;20307;-35
2024/01/28 08:24:09;;;;;;;0.20;0.20;;;;;;;16.83;51.04;97984.38;10364580;28;20057;-37
2024/01/28 08:29:11;;;;;;;0.30;0.30;;;;;;;16.83;51.66;97989.44;10371259;28;20199;-36
2024/01/28 08:34:11;;;;;;;0.40;0.40;;;;;;;16.87;51.25;97986.16;10370009;28;20099;-35
2024/01/28 08:39:14;;;;;;;0.40;0.40;;;;;;;16.88;51.19;97987.88;10369415;28;20565;-38
2024/01/28 08:44:15;;;;;;;0.57;0.40;;;;;;;16.85;51.19;98000.44;10370330;28;20038;-35
2024/01/28 08:49:16;;;;;;;0.40;0.40;;;;;;;16.81;51.39;97989.38;10369519;28;20037;-38
2024/01/28 08:54:16;;;;;;;0.30;0.30;;;;;;;16.84;51.44;97993.69;10366235;28;20026;-37
2024/01/28 08:59:16;;;;;;;0.30;0.30;;;;;;;16.85;51.46;97995.38;10366678;28;20057;-42
2024/01/28 09:04:17;;;;;;;0.40;0.30;;;;;;;16.81;51.65;97989.38;10365326;28;20038;-41
2024/01/28 09:09:18;;;;;;;0.52;0.50;;;;;;;16.79;51.71;98000.28;10365262;28;20379;-39
2024/01/28 09:14:18;;;;;;;0.43;0.43;;;;;;;16.81;51.59;97998.66;10368813;28;20567;-40
2024/01/28 09:19:19;;;;;;;0.38;0.38;;;;;;;16.82;51.70;97998.69;10367890;28;20297;-37
2024/01/28 09:24:19;;;;;;;0.40;0.40;;;;;;;16.85;51.55;97987.81;10367875;28;20037;-37
2024/01/28 09:29:20;;;;;;;0.50;0.40;;;;;;;16.86;51.70;97989.50;10367902;28;20038;-36
2024/01/28 09:34:23;;;;;;;0.30;0.30;;;;;;;16.83;51.45;97984.38;10366350;28;20038;-39
2024/01/28 09:39:24;;;;;;;1.63;0.60;;;;;;;16.84;51.40;97981.03;10367190;28;20410;-39
2024/01/28 09:44:25;;;;;;;0.40;0.40;;;;;;;16.81;51.54;97971.69;10367760;28;20038;-35
2024/01/28 09:49:25;;;;;;;0.33;0.33;;;;;;;16.79;51.74;97978.38;10366854;28;20042;-37
2024/01/28 09:54:26;;;;;;;0.73;0.57;;;;;;;16.80;51.55;97979.22;10366116;28;20319;-37
2024/01/28 09:59:26;;;;;;;0.43;0.43;;;;;;;16.79;51.44;97980.03;10367866;28;20524;-38
2024/01/28 10:04:27;;;;;;;0.40;0.40;;;;;;;16.79;51.58;97980.91;10366010;28;20033;-37
2024/01/28 10:09:31;;;;;;;0.40;0.30;;;;;;;16.76;51.55;97979.97;10366070;28;20030;-35
2024/01/28 10:14:31;;;;;;;0.20;0.20;;;;;;;16.79;51.47;97980.03;10366513;28;20045;-34
2024/01/28 10:19:31;;;;;;;0.40;0.40;;;;;;;16.78;51.27;97980.88;10365447;28;20224;-40
2024/01/28 10:24:32;;;;;;;0.40;0.30;;;;;;;16.77;51.79;97977.50;10365102;28;20482;-39
2024/01/28 10:29:32;;;;;;;0.50;0.50;;;;;;;16.81;51.45;97976.75;10366249;28;20041;-34
2024/01/28 10:34:35;;;;;;;0.50;0.50;;;;;;;16.82;51.36;97975.91;10365231;28;20071;-40
2024/01/28 10:39:37;;;;;;;0.40;0.40;;;;;;;16.88;51.17;97971.03;10365196;28;20578;-34
2024/01/28 10:44:47;;;;;;;0.55;0.47;;;;;;;16.89;51.47;97959.25;10365382;28;20686;-34
2024/01/28 10:49:51;;;;;;;0.68;0.63;;;;;;;16.85;52.15;97962.50;10364132;28;20065;-37
2024/01/28 10:54:52;;;;;;;0.28;0.28;;;;;;;16.84;52.36;97953.22;10363901;28;20663;-35
2024/01/28 10:59:53;;;;;;;0.28;0.20;;;;;;;16.79;52.75;97942.09;10365291;28;20042;-36
2024/01/28 11:04:55;;;;;;;0.30;0.30;;;;;;;16.82;52.86;97937.16;10363769;28;20049;-37
2024/01/28 11:09:59;;;;;;;0.40;0.40;;;;;;;16.82;53.01;97937.16;10363471;28;20037;-37
2024/01/28 11:15:00;;;;;;;0.32;0.30;;;;;;;16.83;52.64;97934.63;10364287;28;20048;-35
2024/01/28 11:20:12;;;;;;;0.50;0.40;;;;;;;16.79;52.98;97921.88;10363486;28;20571;-37
2024/01/28 11:25:17;;;;;;;0.55;0.30;;;;;;;16.82;52.34;97915.22;10362843;28;20076;-38
2024/01/28 11:30:21;;;;;;;0.43;0.30;;;;;;;16.82;52.50;97909.31;10363895;28;20045;-36
2024/01/28 11:35:23;;;;;;;0.40;0.40;;;;;;;16.82;52.75;97911.84;10363164;28;20049;-33
2024/01/28 11:40:28;;;;;;;0.57;0.50;;;;;;;16.79;52.68;97906.69;10362921;28;20107;-36
2024/01/28 11:45:29;;;;;;;0.47;0.40;;;;;;;16.80;52.57;97900.81;10363437;28;20486;-35
2024/01/28 11:50:30;;;;;;;0.50;0.40;;;;;;;16.83;52.55;97900.91;10362680;28;20628;-39
2024/01/28 11:55:31;;;;;;;0.30;0.23;;;;;;;16.73;52.16;97886.34;10362473;28;20053;-39
2024/01/28 12:00:31;;;;;;;0.30;0.20;;;;;;;16.78;52.38;97889.81;10367323;28;20029;-40
2024/01/28 12:05:32;;;;;;;0.50;0.47;;;;;;;16.82;52.08;97886.56;10370736;28;20025;-39
2024/01/28 12:10:32;;;;;;;0.30;0.30;;;;;;;16.78;52.22;97880.56;10370471;28;20033;-38
2024/01/28 12:15:33;;;;;;;0.35;0.20;;;;;;;16.78;51.87;97879.69;10370891;28;20052;-38
2024/01/28 12:20:33;;;;;;;1.13;0.40;;;;;;;16.78;52.06;97869.59;10370754;28;20030;-37
2024/01/28 12:25:37;;;;;;;0.30;0.30;;;;;;;16.77;51.69;97867.88;10370130;28;20842;-36
2024/01/28 12:30:38;;;;;;;0.90;0.52;;;;;;;16.79;51.96;97869.63;10370591;28;20060;-39
2024/01/28 12:35:38;;;;;;;0.30;0.30;;;;;;;16.75;51.69;97864.47;10369519;28;20446;-37
2024/01/28 12:40:38;;;;;;;0.50;0.30;;;;;;;16.78;51.47;97859.47;10369431;28;20056;-37
2024/01/28 12:45:39;;;;;;;0.30;0.30;;;;;;;16.80;51.65;97852.75;10370282;28;20036;-37
2024/01/28 12:50:42;;;;;;;0.30;0.30;;;;;;;16.79;52.00;97846.00;10361249;28;20038;-40
2024/01/28 12:55:42;;;;;;;0.55;0.45;;;;;;;16.81;51.65;97839.34;10368583;28;20691;-38
2024/01/28 13:00:43;;;;;;;0.25;0.22;;;;;;;16.79;51.76;97833.34;10368969;28;20030;-36
2024/01/28 13:05:43;;;;;;;0.43;0.43;;;;;;;16.81;51.92;97824.16;10369237;28;20121;-39
2024/01/28 13:10:44;;;;;;;0.32;0.30;;;;;;;16.78;51.60;97829.13;10367953;28;20034;-37
2024/01/28 13:15:44;;;;;;;0.38;0.38;;;;;;;16.82;51.32;97821.63;10368701;28;20041;-36
2024/01/28 13:20:45;;;;;;;0.30;0.30;;;;;;;16.84;51.42;97829.28;10365079;28;20099;-35
2024/01/28 13:25:45;;;;;;;0.43;0.43;;;;;;;16.81;51.86;97817.41;10367718;28;20556;-35
2024/01/28 13:30:46;;;;;;;0.33;0.30;;;;;;;16.81;51.62;97801.41;10368384;28;20037;-36
2024/01/28 13:35:46;;;;;;;0.40;0.40;;;;;;;16.82;51.84;97793.81;10367537;28;20036;-38
2024/01/28 13:40:46;;;;;;;0.40;0.30;;;;;;;16.85;51.27;97795.56;10366994;28;20033;-36
2024/01/28 13:45:47;;;;;;;0.43;0.30;;;;;;;16.84;51.52;97788.81;10367769;28;20765;-34
2024/01/28 13:50:47;;;;;;;0.38;0.30;;;;;;;16.80;52.10;97787.88;10366428;28;20111;-36
2024/01/28 13:55:48;;;;;;;0.20;0.20;;;;;;;16.80;52.20;97787.00;10366316;28;20095;-37
2024/01/28 14:00:48;;;;;;;0.50;0.40;;;;;;;16.82;52.29;97776.13;10367600;28;20034;-39
2024/01/28 14:05:49;;;;;;;0.35;0.30;;;;;;;16.82;52.44;97775.28;10366648;28;20095;-34
2024/01/28 14:10:50;;;;;;;0.35;0.30;;;;;;;16.82;51.84;97776.13;10366417;28;20498;-36
2024/01/28 14:15:50;;;;;;;0.30;0.30;;;;;;;16.86;51.34;97777.03;10366714;28;20034;-37
2024/01/28 14:20:50;;;;;;;0.20;0.20;;;;;;;16.92;51.16;97777.19;10365183;28;20042;-39
2024/01/28 14:25:51;;;;;;;0.40;0.40;;;;;;;16.99;50.26;97766.41;10365534;28;20025;-37
2024/01/28 14:30:51;;;;;;;0.20;0.20;;;;;;;16.98;50.36;97764.69;10365886;28;20034;-37
2024/01/28 14:35:52;;;;;;;0.20;0.20;;;;;;;17.01;50.55;97759.69;10365041;28;20040;-36
2024/01/28 14:40:52;;;;;;;0.20;0.20;;;;;;;17.04;50.27;97762.28;10365174;28;20030;-38
2024/01/28 14:45:56;;;;;;;0.20;0.20;;;;;;;17.06;50.23;97766.56;10365582;28;20088;-38
2024/01/28 14:50:57;;;;;;;0.30;0.30;;;;;;;17.08;50.30;97764.06;10364853;28;20042;-38
2024/01/28 14:55:57;;;;;;;0.30;0.20;;;;;;;17.10;49.99;97758.22;10363931;28;20473;-36
2024/01/28 15:00:58;;;;;;;0.30;0.30;;;;;;;17.12;50.13;97770.88;10365193;28;20038;-39
2024/01/28 15:05:58;;;;;;;0.40;0.40;;;;;;;17.06;49.76;97761.50;10363734;28;20293;-37
2024/01/28 15:10:58;;;;;;;0.30;0.30;;;;;;;17.09;50.22;97761.56;10363656;28;20772;-34
2024/01/28 15:15:59;;;;;;;0.50;0.50;;;;;;;17.10;50.00;97764.94;10363256;28;20046;-38
2024/01/28 15:21:00;;;;;;;0.32;0.30;;;;;;;17.12;49.96;97765.84;10363687;28;20046;-36
2024/01/28 15:26:01;;;;;;;0.30;0.30;;;;;;;17.14;49.92;97769.28;10363172;28;20117;-38
2024/01/28 15:31:01;;;;;;;0.30;0.20;;;;;;;17.13;49.97;97770.06;10364275;28;20038;-38
2024/01/28 15:36:02;;;;;;;0.43;0.40;;;;;;;17.12;49.96;97769.22;10361684;28;20038;-34
2024/01/28 15:41:03;;;;;;;0.40;0.20;;;;;;;17.11;50.31;97776.78;10363134;28;20092;-37
2024/01/28 15:46:05;;;;;;;0.20;0.20;;;;;;;17.12;49.77;97781.00;10363555;28;20113;-38
2024/01/28 15:51:07;;;;;;;0.28;0.22;;;;;;;17.12;50.05;97781.00;10362820;28;20046;-33
2024/01/28 15:56:08;;;;;;;0.70;0.30;;;;;;;17.10;50.31;97777.59;10363239;28;20034;-37
2024/01/28 16:01:09;;;;;;;0.30;0.30;;;;;;;17.10;50.27;97778.47;10363248;28;20050;-34
2024/01/28 16:06:09;;;;;;;0.20;0.10;;;;;;;17.12;50.06;97783.53;10362630;28;20429;-37
2024/01/28 16:11:10;;;;;;;0.55;0.32;;;;;;;17.13;50.67;97787.78;10362116;28;20042;-37
2024/01/28 16:16:10;;;;;;;0.20;0.20;;;;;;;17.11;50.43;97800.41;10363243;28;20042;-37
2024/01/28 16:21:10;;;;;;;0.30;0.30;;;;;;;17.11;50.30;97799.56;10361854;28;20301;-38
2024/01/28 16:26:11;;;;;;;0.60;0.30;;;;;;;17.14;50.20;97799.63;10361825;28;20289;-36
2024/01/28 16:31:11;;;;;;;0.50;0.40;;;;;;;17.13;50.48;97797.91;10363239;28;20616;-36
2024/01/28 16:36:13;;;;;;;0.30;0.20;;;;;;;17.14;50.50;97802.16;10361938;28;20061;-38
2024/01/28 16:41:14;;;;;;;0.40;0.40;;;;;;;17.12;50.29;97803.78;10361677;28;20311;-37
2024/01/28 16:46:14;;;;;;;2.73;0.70;;;;;;;17.00;50.53;97806.06;10361551;28;20042;-35
2024/01/28 16:51:14;;;;;;;1.77;0.47;;;;;;;17.13;50.05;97805.50;10361157;28;20288;-37
2024/01/28 16:56:15;;;;;;;0.63;0.47;;;;;;;17.13;50.09;97802.97;10363294;28;20034;-36
2024/01/28 17:01:16;;;;;;;2.15;0.70;;;;;;;17.18;49.90;97809.88;10363217;28;20038;-36
2024/01/28 17:06:16;;;;;;;1.87;0.63;;;;;;;17.20;50.07;97797.22;10364999;28;20038;-34
2024/01/28 17:11:16;;;;;;;1.90;0.70;;;;;;;17.24;50.10;97801.53;10364066;28;20478;-37
2024/01/28 17:16:17;;;;;;;1.52;0.70;;;;;;;17.18;51.24;97801.41;10367135;28;20042;-39
2024/01/28 17:21:18;;;;;;;2.40;0.52;;;;;;;17.21;51.49;97802.31;10367400;28;20620;-38
2024/01/28 17:26:18;;;;;;;5.65;0.80;;;;;;;17.21;50.57;97801.47;10365883;28;20032;-36
2024/01/28 17:31:19;;;;;;;1.00;0.70;;;;;;;17.22;51.16;97795.56;10366964;28;20062;-35
2024/01/28 17:36:23;;;;;;;2.40;0.50;;;;;;;17.22;50.71;97798.09;10367097;28;20057;-34
2024/01/28 17:41:23;;;;;;;1.15;0.60;;;;;;;17.17;51.56;97799.69;10367176;28;20056;-34
2024/01/28 17:46:25;;;;;;;2.45;0.57;;;;;;;17.25;50.16;97804.09;10367427;28;20111;-35
2024/01/28 17:51:26;;;;;;;4.22;0.60;;;;;;;17.30;50.22;97799.13;10366734;28;20072;-38
2024/01/28 17:56:26;;;;;;;3.20;0.77;;;;;;;17.34;49.87;97799.22;10377322;28;20033;-38
2024/01/28 18:01:27;;;;;;;1.63;0.65;;;;;;;17.36;49.87;97794.22;10364744;28;20183;-39
2024/01/28 18:06:27;;;;;;;4.60;0.90;;;;;;;17.42;50.52;97801.97;10363917;28;20471;-35
2024/01/28 18:11:28;;;;;;;2.37;0.77;;;;;;;17.42;50.64;97787.63;10364133;28;20034;-39
2024/01/28 18:16:28;;;;;;;3.07;0.67;;;;;;;17.45;50.40;97792.75;10365364;28;20287;-38
2024/01/28 18:21:29;;;;;;;2.30;1.02;;;;;;;17.43;51.34;97799.47;10365537;28;20029;-37
2024/01/28 18:26:29;;;;;;;5.50;1.13;;;;;;;17.46;49.85;97803.72;10364608;28;20037;-37
2024/01/28 18:31:29;;;;;;;2.75;0.90;;;;;;;17.46;50.09;97804.59;10365379;28;20764;-35
2024/01/28 18:36:31;;;;;;;2.23;0.70;;;;;;;17.47;50.04;97805.44;10364104;28;20061;-36
2024/01/28 18:41:31;;;;;;;3.40;0.88;;;;;;;17.46;50.07;97812.19;10363895;28;20516;-37
2024/01/28 18:46:31;;;;;;;4.10;0.90;;;;;;;17.47;49.86;97815.56;10364936;28;20033;-39
2024/01/28 18:51:32;;;;;;;4.33;0.73;;;;;;;17.44;49.56;97815.50;10364053;28;20120;-38
2024/01/28 18:56:36;;;;;;;5.20;1.27;;;;;;;17.45;50.82;97817.22;10363394;28;20328;-36
2024/01/28 19:01:36;;;;;;;2.03;0.80;;;;;;;17.48;50.74;97813.06;10364529;28;20038;-36
2024/01/28 19:06:39;;;;;;;4.82;1.40;;;;;;;17.48;50.39;97818.13;10361596;28;20030;-39
2024/01/28 19:11:39;;;;;;;3.08;1.10;;;;;;;17.45;51.99;97822.28;10363655;28;20041;-38
2024/01/28 19:16:40;;;;;;;5.97;2.30;;;;;;;17.48;51.48;97827.44;10361963;28;20038;-35
2024/01/28 19:21:40;;;;;;;3.78;1.10;;;;;;;17.44;51.46;97825.63;10359852;28;20113;-41
2024/01/28 19:26:41;;;;;;;3.15;0.70;;;;;;;17.43;51.25;97834.94;10361065;28;20410;-36
2024/01/28 19:31:43;;;;;;;6.50;1.50;;;;;;;17.44;51.36;97831.56;10359632;28;20053;-38
2024/01/28 19:36:45;;;;;;;4.38;1.35;;;;;;;17.43;51.04;97829.84;10356508;28;20590;-37
2024/01/28 19:41:48;;;;;;;4.55;0.88;;;;;;;17.45;51.93;97827.34;10354617;28;20242;-37
2024/01/28 19:46:48;;;;;;;3.95;1.15;;;;;;;17.44;52.53;97828.16;10357296;28;20105;-37
2024/01/28 19:51:48;;;;;;;2.25;1.38;;;;;;;17.42;50.01;97827.28;10357533;28;20030;-42
2024/01/28 19:56:50;;;;;;;3.73;1.43;;;;;;;17.41;50.57;97810.38;10358180;28;20037;-39
2024/01/28 20:01:51;;;;;;;4.35;1.10;;;;;;;17.40;50.05;97813.75;10358364;28;20289;-38
2024/01/28 20:06:51;;;;;;;2.75;1.13;;;;;;;17.39;49.50;97823.00;10355614;28;20034;-41
2024/01/28 20:11:52;;;;;;;3.65;1.20;;;;;;;17.41;49.61;97815.44;10357321;28;20048;-40
2024/01/28 20:16:54;;;;;;;1.87;1.00;;;;;;;17.42;49.15;97817.16;10358170;28;20077;-37
2024/01/28 20:21:54;;;;;;;2.13;1.20;;;;;;;17.41;49.38;97810.38;10363376;28;20041;-40
2024/01/28 20:26:55;;;;;;;2.90;1.10;;;;;;;17.39;49.23;97801.88;10364333;28;20040;-39
2024/01/28 20:31:56;;;;;;;3.22;1.10;;;;;;;17.39;49.34;97809.47;10364705;28;20767;-37
2024/01/28 20:36:56;;;;;;;3.35;1.15;;;;;;;17.39;49.42;97801.88;10361976;28;20044;-38
2024/01/28 20:41:57;;;;;;;2.87;1.20;;;;;;;17.38;48.90;97802.72;10361384;28;20052;-40
2024/01/28 20:46:58;;;;;;;3.55;1.27;;;;;;;17.38;48.89;97802.72;10360491;28;20552;-37
2024/01/28 20:51:59;;;;;;;1.98;1.25;;;;;;;17.41;48.91;97795.19;10364670;28;20034;-37
2024/01/28 20:57:06;;;;;;;2.40;1.27;;;;;;;17.42;48.81;97796.91;10360945;28;20042;-34
2024/01/28 21:02:07;;;;;;;2.15;1.50;;;;;;;17.40;48.95;97804.47;10363371;28;20065;-37
2024/01/28 21:07:07;;;;;;;3.90;1.13;;;;;;;17.37;49.08;97799.34;10364543;28;20421;-37
2024/01/28 21:12:09;;;;;;;2.70;1.40;;;;;;;17.39;48.39;97801.88;10363732;28;20553;-37
2024/01/28 21:17:09;;;;;;;2.03;1.42;;;;;;;17.37;48.59;97813.66;10362539;28;20045;-38
2024/01/28 21:22:10;;;;;;;3.37;1.33;;;;;;;17.35;48.35;97810.22;10366766;28;20036;-36
2024/01/28 21:27:10;;;;;;;2.90;1.47;;;;;;;17.35;48.35;97813.63;10364774;28;20295;-35
2024/01/28 21:32:10;;;;;;;3.83;1.42;;;;;;;17.35;48.27;97816.16;10361167;28;20041;-38
2024/01/28 21:37:11;;;;;;;3.28;1.88;;;;;;;17.32;48.06;97816.06;10364624;28;20116;-36
2024/01/28 21:42:11;;;;;;;2.55;1.20;;;;;;;17.33;48.20;97819.47;10362592;28;20116;-38
2024/01/28 21:47:12;;;;;;;3.40;1.35;;;;;;;17.33;48.28;97819.47;10365251;28;20124;-36
2024/01/28 21:52:12;;;;;;;2.33;1.17;;;;;;;17.31;47.81;97819.41;10363024;28;20026;-38
2024/01/28 21:57:12;;;;;;;2.43;1.13;;;;;;;17.31;48.19;97818.59;10364957;28;20038;-39
2024/01/28 22:02:14;;;;;;;2.30;1.30;;;;;;;17.27;48.22;97814.25;10365178;28;20041;-40
2024/01/28 22:07:14;;;;;;;1.85;1.17;;;;;;;17.30;49.32;97814.31;10364801;28;20038;-37
2024/01/28 22:12:14;;;;;;;2.13;1.20;;;;;;;17.28;49.37;97805.84;10363087;28;20042;-35
2024/01/28 22:17:15;;;;;;;3.80;1.10;;;;;;;17.28;50.31;97813.44;10380363;28;20045;-38
2024/01/28 22:22:15;;;;;;;5.77;1.67;;;;;;;17.25;52.72;97808.31;10365993;28;20030;-41
2024/01/28 22:27:16;;;;;;;2.67;1.60;;;;;;;17.23;53.73;97807.44;10365288;28;20045;-37
2024/01/28 22:32:16;;;;;;;2.77;1.63;;;;;;;17.20;53.60;97805.69;10365106;28;20513;-37
2024/01/28 22:37:18;;;;;;;2.97;1.45;;;;;;;17.19;52.57;97813.22;10366223;28;20288;-38
2024/01/28 22:42:19;;;;;;;3.38;1.70;;;;;;;17.18;54.93;97814.06;10364324;28;20040;-39
2024/01/28 22:47:19;;;;;;;7.10;1.42;;;;;;;17.17;54.17;97807.28;10364911;28;20036;-36
2024/01/28 22:52:19;;;;;;;3.78;1.65;;;;;;;17.16;55.94;97813.19;10365320;28;20489;-35
2024/01/28 22:57:20;;;;;;;4.43;1.90;;;;;;;17.10;53.18;97808.84;10363872;28;20042;-34
2024/01/28 23:02:25;;;;;;;5.22;1.63;;;;;;;17.12;56.60;97809.72;10364232;28;20046;-35
2024/01/28 23:07:25;;;;;;;5.57;1.60;;;;;;;17.13;55.33;97802.97;10363101;28;20042;-38
2024/01/28 23:12:26;;;;;;;3.97;1.50;;;;;;;17.11;54.96;97814.72;10363046;28;20041;-38
2024/01/28 23:17:26;;;;;;;3.87;1.67;;;;;;;17.11;55.36;97810.53;10363705;28;20030;-36